createdAt,value
2024-03-08T00:00:24.518Z,17.31
2024-03-08T00:01:31.376Z,13.63
2024-03-08T00:02:38.538Z,9.94
2024-03-08T00:03:45.512Z,6.88
2024-03-08T00:04:52.424Z,4.87
2024-03-08T00:05:59.397Z,3.40
2024-03-08T00:07:06.248Z,3.09
2024-03-08T00:08:13.114Z,2.73
2024-03-08T00:09:19.988Z,2.46
2024-03-08T00:10:28.371Z,2.47
2024-03-08T00:11:35.535Z,2.61
2024-03-08T00:12:42.443Z,3.18
2024-03-08T00:13:49.308Z,2.77
2024-03-08T00:14:56.217Z,2.81
2024-03-08T00:16:03.159Z,3.11
2024-03-08T00:17:10.079Z,4.39
2024-03-08T00:18:17.059Z,6.48
2024-03-08T00:19:23.936Z,7.31
2024-03-08T00:20:30.903Z,11.34
2024-03-08T00:21:37.802Z,22.36
2024-03-08T00:22:44.674Z,29.87
2024-03-08T00:23:51.589Z,22.51
2024-03-08T00:24:58.450Z,12.20
2024-03-08T00:26:05.366Z,6.90
2024-03-08T00:27:12.268Z,5.10
2024-03-08T00:28:19.128Z,4.27
2024-03-08T00:29:26.073Z,4.64
2024-03-08T00:30:32.915Z,5.26
2024-03-08T00:31:39.848Z,5.78
2024-03-08T00:32:46.776Z,5.95
2024-03-08T00:33:53.905Z,4.13
2024-03-08T00:35:00.854Z,3.33
2024-03-08T00:36:07.760Z,2.71
2024-03-08T00:37:14.626Z,2.71
2024-03-08T00:38:21.523Z,2.64
2024-03-08T00:39:28.376Z,2.64
2024-03-08T00:40:35.253Z,2.50
2024-03-08T00:41:42.155Z,2.19
2024-03-08T00:42:49.019Z,2.15
2024-03-08T00:43:55.956Z,2.32
2024-03-08T00:45:02.991Z,2.36
2024-03-08T00:46:10.005Z,2.10
2024-03-08T00:47:16.902Z,2.49
2024-03-08T00:48:23.837Z,2.47
2024-03-08T00:49:30.734Z,2.56
2024-03-08T00:50:37.657Z,2.83
2024-03-08T00:51:44.557Z,3.58
2024-03-08T00:52:51.434Z,4.11
2024-03-08T00:53:58.364Z,3.66
2024-03-08T00:55:05.269Z,2.35
2024-03-08T00:56:12.129Z,2.32
2024-03-08T00:57:19.011Z,3.72
2024-03-08T00:58:25.857Z,6.49
2024-03-08T00:59:32.757Z,11.94
2024-03-08T01:00:39.794Z,20.76
2024-03-08T01:01:46.772Z,28.08
2024-03-08T01:02:53.709Z,32.89
2024-03-08T01:04:00.630Z,37.27
2024-03-08T01:05:07.482Z,35.47
2024-03-08T01:06:14.437Z,33.31
2024-03-08T01:07:21.301Z,39.37
2024-03-08T01:08:28.264Z,34.84
2024-03-08T01:09:35.116Z,33.32
2024-03-08T01:10:42.034Z,31.66
2024-03-08T01:11:48.946Z,23.65
2024-03-08T01:12:55.867Z,17.96
2024-03-08T01:14:02.757Z,15.56
2024-03-08T01:15:09.893Z,12.12
2024-03-08T01:16:17.112Z,8.77
2024-03-08T01:17:24.119Z,6.23
2024-03-08T01:18:31.133Z,4.89
2024-03-08T01:19:38.136Z,4.11
2024-03-08T01:20:45.130Z,3.78
2024-03-08T01:21:52.067Z,4.06
2024-03-08T01:22:59.009Z,4.11
2024-03-08T01:24:06.019Z,4.30
2024-03-08T01:25:12.941Z,4.50
2024-03-08T01:26:19.785Z,4.49
2024-03-08T01:27:26.676Z,4.53
2024-03-08T01:28:33.517Z,4.27
2024-03-08T01:29:40.393Z,4.09
2024-03-08T01:30:47.265Z,4.38
2024-03-08T01:31:54.150Z,4.21
2024-03-08T01:33:01.064Z,3.78
2024-03-08T01:34:07.999Z,3.79
2024-03-08T01:35:14.846Z,3.93
2024-03-08T01:36:21.702Z,4.24
2024-03-08T01:37:28.623Z,4.22
2024-03-08T01:38:35.489Z,4.66
2024-03-08T01:39:42.458Z,5.07
2024-03-08T01:40:49.295Z,5.83
2024-03-08T01:41:56.239Z,6.26
2024-03-08T01:43:03.168Z,6.40
2024-03-08T01:44:10.012Z,6.46
2024-03-08T01:45:16.959Z,6.61
2024-03-08T01:46:23.866Z,6.06
2024-03-08T01:47:30.883Z,5.91
2024-03-08T01:48:37.972Z,5.01
2024-03-08T01:49:44.941Z,4.84
2024-03-08T01:50:51.845Z,4.35
2024-03-08T01:51:58.700Z,4.57
2024-03-08T01:53:05.583Z,5.05
2024-03-08T01:54:12.590Z,6.83
2024-03-08T01:55:19.451Z,11.07
2024-03-08T01:56:26.646Z,15.77
2024-03-08T01:57:33.623Z,20.22
2024-03-08T01:58:40.469Z,24.00
2024-03-08T01:59:47.356Z,25.98
2024-03-08T02:00:54.202Z,29.06
2024-03-08T02:02:01.097Z,33.31
2024-03-08T02:03:08.040Z,32.51
2024-03-08T02:04:14.941Z,34.65
2024-03-08T02:05:21.810Z,37.05
2024-03-08T02:06:28.710Z,35.37
2024-03-08T02:07:35.579Z,31.49
2024-03-08T02:08:42.499Z,32.01
2024-03-08T02:09:49.447Z,34.14
2024-03-08T02:10:56.314Z,27.08
2024-03-08T02:12:03.190Z,26.41
2024-03-08T02:13:10.103Z,29.84
2024-03-08T02:14:16.960Z,31.93
2024-03-08T02:15:23.804Z,32.48
2024-03-08T02:16:30.669Z,25.15
2024-03-08T02:17:37.649Z,19.65
2024-03-08T02:18:44.708Z,15.46
2024-03-08T02:19:51.664Z,13.56
2024-03-08T02:20:58.550Z,10.65
2024-03-08T02:22:05.823Z,9.99
2024-03-08T02:23:12.897Z,8.62
2024-03-08T02:24:19.807Z,8.14
2024-03-08T02:25:26.669Z,6.80
2024-03-08T02:26:33.567Z,5.94
2024-03-08T02:27:40.420Z,5.30
2024-03-08T02:28:47.270Z,5.10
2024-03-08T02:29:54.154Z,5.91
2024-03-08T02:31:01.104Z,5.42
2024-03-08T02:32:08.014Z,5.66
2024-03-08T02:33:14.891Z,5.83
2024-03-08T02:34:22.088Z,6.36
2024-03-08T02:35:28.988Z,6.12
2024-03-08T02:36:35.851Z,5.94
2024-03-08T02:37:42.703Z,6.17
2024-03-08T02:38:49.652Z,6.17
2024-03-08T02:39:56.637Z,6.83
2024-03-08T02:41:03.544Z,7.12
2024-03-08T02:42:10.508Z,8.41
2024-03-08T02:43:17.463Z,9.87
2024-03-08T02:44:24.324Z,12.75
2024-03-08T02:45:31.176Z,14.96
2024-03-08T02:46:38.066Z,16.72
2024-03-08T02:47:45.003Z,18.68
2024-03-08T02:48:51.931Z,18.12
2024-03-08T02:49:58.874Z,20.25
2024-03-08T02:51:05.752Z,22.19
2024-03-08T02:52:12.654Z,22.42
2024-03-08T02:53:19.488Z,20.70
2024-03-08T02:54:26.372Z,15.97
2024-03-08T02:55:33.247Z,11.80
2024-03-08T02:56:40.154Z,8.45
2024-03-08T02:57:47.013Z,5.74
2024-03-08T02:58:53.964Z,4.20
2024-03-08T03:00:00.958Z,3.39
2024-03-08T03:01:07.965Z,3.03
2024-03-08T03:02:14.830Z,2.82
2024-03-08T03:03:21.750Z,2.73
2024-03-08T03:04:28.610Z,2.75
2024-03-08T03:05:35.567Z,2.75
2024-03-08T03:06:42.461Z,3.09
2024-03-08T03:07:49.302Z,3.26
2024-03-08T03:08:56.293Z,4.84
2024-03-08T03:10:03.119Z,6.03
2024-03-08T03:11:10.028Z,12.24
2024-03-08T03:12:16.920Z,21.57
2024-03-08T03:13:23.802Z,29.72
2024-03-08T03:14:30.728Z,33.10
2024-03-08T03:15:37.713Z,33.04
2024-03-08T03:16:44.761Z,35.64
2024-03-08T03:17:51.696Z,35.33
2024-03-08T03:18:58.522Z,39.01
2024-03-08T03:20:05.426Z,34.88
2024-03-08T03:21:12.405Z,27.89
2024-03-08T03:22:19.332Z,24.00
2024-03-08T03:23:26.180Z,18.50
2024-03-08T03:24:33.069Z,14.09
2024-03-08T03:25:40.305Z,11.32
2024-03-08T03:26:47.326Z,9.45
2024-03-08T03:27:54.241Z,7.70
2024-03-08T03:29:01.083Z,6.34
2024-03-08T03:30:08.002Z,5.34
2024-03-08T03:31:14.935Z,4.29
2024-03-08T03:32:21.864Z,4.36
2024-03-08T03:33:28.804Z,3.80
2024-03-08T03:34:35.632Z,3.70
2024-03-08T03:35:42.585Z,3.47
2024-03-08T03:36:49.561Z,3.97
2024-03-08T03:37:56.408Z,4.28
2024-03-08T03:39:03.286Z,3.89
2024-03-08T03:40:10.166Z,4.02
2024-03-08T03:41:17.023Z,4.17
2024-03-08T03:42:23.939Z,4.10
2024-03-08T03:43:30.811Z,3.66
2024-03-08T03:44:37.741Z,3.24
2024-03-08T03:45:44.618Z,3.42
2024-03-08T03:46:51.471Z,3.46
2024-03-08T03:47:58.395Z,3.59
2024-03-08T03:49:05.283Z,3.28
2024-03-08T03:50:12.122Z,3.52
2024-03-08T03:51:19.016Z,3.62
2024-03-08T03:52:25.867Z,3.78
2024-03-08T03:53:32.797Z,4.04
2024-03-08T03:54:39.670Z,4.78
2024-03-08T03:55:46.516Z,6.19
2024-03-08T03:56:53.429Z,6.86
2024-03-08T03:58:00.715Z,7.47
2024-03-08T03:59:07.741Z,7.06
2024-03-08T04:00:14.633Z,6.34
2024-03-08T04:01:21.576Z,5.88
2024-03-08T04:02:28.444Z,6.11
2024-03-08T04:03:35.270Z,5.07
2024-03-08T04:04:42.188Z,5.24
2024-03-08T04:05:49.134Z,5.76
2024-03-08T04:06:56.039Z,6.18
2024-03-08T04:08:02.950Z,8.02
2024-03-08T04:09:09.893Z,10.11
2024-03-08T04:10:16.846Z,11.73
2024-03-08T04:11:23.689Z,14.67
2024-03-08T04:12:30.581Z,18.50
2024-03-08T04:13:37.491Z,23.34
2024-03-08T04:14:44.391Z,29.14
2024-03-08T04:15:51.269Z,33.30
2024-03-08T04:16:58.150Z,36.33
2024-03-08T04:18:05.098Z,40.34
2024-03-08T04:19:12.025Z,39.81
2024-03-08T04:20:19.091Z,40.22
2024-03-08T04:21:26.024Z,38.52
2024-03-08T04:22:32.836Z,37.77
2024-03-08T04:23:39.715Z,37.46
2024-03-08T04:24:46.576Z,38.74
2024-03-08T04:25:53.462Z,40.58
2024-03-08T04:27:00.553Z,40.94
2024-03-08T04:28:07.493Z,41.31
2024-03-08T04:29:14.339Z,37.88
2024-03-08T04:30:21.250Z,28.95
2024-03-08T04:31:28.065Z,19.87
2024-03-08T04:32:35.032Z,13.99
2024-03-08T04:33:42.028Z,8.33
2024-03-08T04:34:48.879Z,5.72
2024-03-08T04:35:55.836Z,3.87
2024-03-08T04:37:02.698Z,4.07
2024-03-08T04:38:09.592Z,3.94
2024-03-08T04:39:16.542Z,4.70
2024-03-08T04:40:23.499Z,5.43
2024-03-08T04:41:30.397Z,7.32
2024-03-08T04:42:37.226Z,9.01
2024-03-08T04:43:44.129Z,9.18
2024-03-08T04:44:51.023Z,9.63
2024-03-08T04:45:57.878Z,8.29
2024-03-08T04:47:04.742Z,8.67
2024-03-08T04:48:11.729Z,13.36
2024-03-08T04:49:18.718Z,45.91
2024-03-08T04:50:25.955Z,9.34
2024-03-08T04:51:32.838Z,10.73
2024-03-08T04:52:39.734Z,9.86
2024-03-08T04:53:46.587Z,8.78
2024-03-08T04:54:53.478Z,13.42
2024-03-08T04:56:00.374Z,10.46
2024-03-08T04:57:09.419Z,10.20
2024-03-08T04:58:16.835Z,8.43
2024-03-08T04:59:23.738Z,10.18
2024-03-08T05:00:30.685Z,13.21
2024-03-08T05:01:37.598Z,28.59
2024-03-08T05:02:44.523Z,35.38
2024-03-08T05:03:51.398Z,39.33
2024-03-08T05:04:58.296Z,39.30
2024-03-08T05:06:05.155Z,34.59
2024-03-08T05:07:12.079Z,29.37
2024-03-08T05:08:18.947Z,22.88
2024-03-08T05:09:25.842Z,19.02
2024-03-08T05:10:32.722Z,17.60
2024-03-08T05:11:39.596Z,15.11
2024-03-08T05:12:46.406Z,13.51
2024-03-08T05:13:53.275Z,11.72
2024-03-08T05:15:00.221Z,10.56
2024-03-08T05:16:07.105Z,10.33
2024-03-08T05:17:13.963Z,10.51
2024-03-08T05:18:20.907Z,11.18
2024-03-08T05:19:29.212Z,10.60
2024-03-08T05:20:37.243Z,10.80
2024-03-08T05:21:44.100Z,10.95
2024-03-08T05:22:50.983Z,10.72
2024-03-08T05:23:57.884Z,11.68
2024-03-08T05:25:04.760Z,12.30
2024-03-08T05:26:11.646Z,11.20
2024-03-08T05:27:18.639Z,10.07
2024-03-08T05:28:25.535Z,9.87
2024-03-08T05:29:32.457Z,11.09
2024-03-08T05:30:39.341Z,13.81
2024-03-08T05:31:46.263Z,14.34
2024-03-08T05:32:53.226Z,13.76
2024-03-08T05:34:00.209Z,15.20
2024-03-08T05:35:07.106Z,13.95
2024-03-08T05:36:13.987Z,14.62
2024-03-08T05:37:20.861Z,14.04
2024-03-08T05:38:27.756Z,13.33
2024-03-08T05:39:34.642Z,11.18
2024-03-08T05:40:41.501Z,8.59
2024-03-08T05:41:48.580Z,7.42
2024-03-08T05:42:55.681Z,7.02
2024-03-08T05:44:02.560Z,6.14
2024-03-08T05:45:09.498Z,6.12
2024-03-08T05:46:16.320Z,6.42
2024-03-08T05:47:23.257Z,5.89
2024-03-08T05:48:30.193Z,5.58
2024-03-08T05:49:37.134Z,6.07
2024-03-08T05:50:43.996Z,5.69
2024-03-08T05:51:50.866Z,5.90
2024-03-08T05:52:57.792Z,5.72
2024-03-08T05:54:04.741Z,5.60
2024-03-08T05:55:11.673Z,5.32
2024-03-08T05:56:18.535Z,5.95
2024-03-08T05:57:25.428Z,5.50
2024-03-08T05:58:32.323Z,5.32
2024-03-08T05:59:39.280Z,5.52
2024-03-08T06:00:46.165Z,5.44
2024-03-08T06:01:53.024Z,5.14
2024-03-08T06:02:59.926Z,5.08
2024-03-08T06:04:06.849Z,5.14
2024-03-08T06:05:13.755Z,5.15
2024-03-08T06:06:20.700Z,5.65
2024-03-08T06:07:27.533Z,5.62
2024-03-08T06:08:34.427Z,5.45
2024-03-08T06:09:41.326Z,5.99
2024-03-08T06:10:48.303Z,6.09
2024-03-08T06:11:55.751Z,6.35
2024-03-08T06:13:02.878Z,6.89
2024-03-08T06:14:09.756Z,6.61
2024-03-08T06:15:16.784Z,6.85
2024-03-08T06:16:23.822Z,6.51
2024-03-08T06:17:30.729Z,6.29
2024-03-08T06:18:37.807Z,5.89
2024-03-08T06:19:44.703Z,5.48
2024-03-08T06:20:53.714Z,5.27
2024-03-08T06:22:01.682Z,5.15
2024-03-08T06:23:08.536Z,5.37
2024-03-08T06:24:15.446Z,5.70
2024-03-08T06:25:22.378Z,8.60
2024-03-08T06:26:30.713Z,8.13
2024-03-08T06:27:38.246Z,7.20
2024-03-08T06:28:45.173Z,5.53
2024-03-08T06:29:52.131Z,6.31
2024-03-08T06:30:58.948Z,8.46
2024-03-08T06:32:05.895Z,7.46
2024-03-08T06:33:12.851Z,8.78
2024-03-08T06:34:19.739Z,8.87
2024-03-08T06:35:26.576Z,7.67
2024-03-08T06:36:33.452Z,8.16
2024-03-08T06:37:40.398Z,9.47
2024-03-08T06:38:47.312Z,19.88
2024-03-08T06:39:54.274Z,35.36
2024-03-08T06:41:01.219Z,48.28
2024-03-08T06:42:08.211Z,52.23
2024-03-08T06:43:15.076Z,52.23
2024-03-08T06:44:22.044Z,52.68
2024-03-08T06:45:28.854Z,53.58
2024-03-08T06:46:35.776Z,53.26
2024-03-08T06:47:42.668Z,52.13
2024-03-08T06:48:49.945Z,51.42
2024-03-08T06:49:56.918Z,50.42
2024-03-08T06:51:03.776Z,48.26
2024-03-08T06:52:10.622Z,49.06
2024-03-08T06:53:19.599Z,49.01
2024-03-08T06:54:28.070Z,39.52
2024-03-08T06:55:34.959Z,39.32
2024-03-08T06:56:41.828Z,40.08
2024-03-08T06:57:48.722Z,30.12
2024-03-08T06:58:55.608Z,15.56
2024-03-08T07:00:02.639Z,10.28
2024-03-08T07:01:09.786Z,10.87
2024-03-08T07:02:16.621Z,13.44
2024-03-08T07:03:23.571Z,24.32
2024-03-08T07:04:30.557Z,40.27
2024-03-08T07:05:37.435Z,41.49
2024-03-08T07:06:44.316Z,42.42
2024-03-08T07:07:51.163Z,45.75
2024-03-08T07:08:58.100Z,38.15
2024-03-08T07:10:04.947Z,29.97
2024-03-08T07:11:11.937Z,29.08
2024-03-08T07:12:18.821Z,28.34
2024-03-08T07:13:25.721Z,27.93
2024-03-08T07:14:32.680Z,21.46
2024-03-08T07:15:39.566Z,16.39
2024-03-08T07:16:46.424Z,12.62
2024-03-08T07:17:53.371Z,11.02
2024-03-08T07:19:00.500Z,10.79
2024-03-08T07:20:07.426Z,9.87
2024-03-08T07:21:14.278Z,8.99
2024-03-08T07:22:21.259Z,8.82
2024-03-08T07:23:28.149Z,8.80
2024-03-08T07:24:35.002Z,8.93
2024-03-08T07:25:41.848Z,8.84
2024-03-08T07:26:48.693Z,9.89
2024-03-08T07:27:55.608Z,10.04
2024-03-08T07:29:02.496Z,9.27
2024-03-08T07:30:09.428Z,8.44
2024-03-08T07:31:16.300Z,9.07
2024-03-08T07:32:23.140Z,9.00
2024-03-08T07:33:30.110Z,8.75
2024-03-08T07:34:37.000Z,9.14
2024-03-08T07:35:43.885Z,8.74
2024-03-08T07:36:50.768Z,10.00
2024-03-08T07:37:57.604Z,10.47
2024-03-08T07:39:05.523Z,11.14
2024-03-08T07:40:14.161Z,10.61
2024-03-08T07:41:21.017Z,11.32
2024-03-08T07:42:27.854Z,12.13
2024-03-08T07:43:34.733Z,12.54
2024-03-08T07:44:41.581Z,10.94
2024-03-08T07:45:48.489Z,12.25
2024-03-08T07:46:58.152Z,9.50
2024-03-08T07:48:05.421Z,8.63
2024-03-08T07:49:12.421Z,7.37
2024-03-08T07:50:19.293Z,6.49
2024-03-08T07:51:26.261Z,6.46
2024-03-08T07:52:33.112Z,7.21
2024-03-08T07:53:39.952Z,8.26
2024-03-08T07:54:46.885Z,7.72
2024-03-08T07:55:53.858Z,9.48
2024-03-08T07:57:00.835Z,11.47
2024-03-08T07:58:07.793Z,12.65
2024-03-08T07:59:14.623Z,14.41
2024-03-08T08:00:21.510Z,15.94
2024-03-08T08:01:28.495Z,17.55
2024-03-08T08:02:37.841Z,17.32
2024-03-08T08:03:45.992Z,15.76
2024-03-08T08:04:52.928Z,12.85
2024-03-08T08:05:59.759Z,10.86
2024-03-08T08:07:06.645Z,9.55
2024-03-08T08:08:13.549Z,9.33
2024-03-08T08:09:20.368Z,8.72
2024-03-08T08:10:27.226Z,8.52
2024-03-08T08:11:34.217Z,8.13
2024-03-08T08:12:41.129Z,8.19
2024-03-08T08:13:48.116Z,7.51
2024-03-08T08:14:55.009Z,7.02
2024-03-08T08:16:01.919Z,7.09
2024-03-08T08:17:08.744Z,7.39
2024-03-08T08:18:15.645Z,7.56
2024-03-08T08:19:22.569Z,7.95
2024-03-08T08:20:29.432Z,7.53
2024-03-08T08:21:36.328Z,8.25
2024-03-08T08:22:43.270Z,8.26
2024-03-08T08:23:50.136Z,8.57
2024-03-08T08:24:57.043Z,8.66
2024-03-08T08:26:03.960Z,9.46
2024-03-08T08:27:10.806Z,9.46
2024-03-08T08:28:17.731Z,9.97
2024-03-08T08:29:24.686Z,9.78
2024-03-08T08:30:31.558Z,10.49
2024-03-08T08:31:38.435Z,10.54
2024-03-08T08:32:45.336Z,11.55
2024-03-08T08:33:52.248Z,12.25
2024-03-08T08:34:59.112Z,12.30
2024-03-08T08:36:06.027Z,12.27
2024-03-08T08:37:12.901Z,13.01
2024-03-08T08:38:19.760Z,13.19
2024-03-08T08:39:26.612Z,13.92
2024-03-08T08:40:33.575Z,12.68
2024-03-08T08:41:40.463Z,12.42
2024-03-08T08:42:50.035Z,12.96
2024-03-08T08:44:03.715Z,13.55
2024-03-08T08:45:15.102Z,12.36
2024-03-08T08:46:21.387Z,12.64
2024-03-08T08:47:28.524Z,12.45
2024-03-08T08:48:35.403Z,12.09
2024-03-08T08:49:42.252Z,11.90
2024-03-08T08:50:49.140Z,11.84
2024-03-08T08:51:59.020Z,11.73
2024-03-08T08:53:06.174Z,11.97
2024-03-08T08:54:14.614Z,12.02
2024-03-08T08:55:22.942Z,12.14
2024-03-08T08:56:29.890Z,12.75
2024-03-08T08:57:37.047Z,11.91
2024-03-08T08:58:44.077Z,12.17
2024-03-08T08:59:50.928Z,13.02
2024-03-08T09:00:57.807Z,12.61
2024-03-08T09:02:04.771Z,12.04
2024-03-08T09:03:11.759Z,12.43
2024-03-08T09:04:18.695Z,13.14
2024-03-08T09:05:25.587Z,13.29
2024-03-08T09:06:32.436Z,13.34
2024-03-08T09:07:39.386Z,13.80
2024-03-08T09:08:46.335Z,14.31
2024-03-08T09:09:53.258Z,14.83
2024-03-08T09:11:00.210Z,15.54
2024-03-08T09:12:07.200Z,16.38
2024-03-08T09:13:18.647Z,16.22
2024-03-08T09:14:25.842Z,17.21
2024-03-08T09:15:32.787Z,17.46
2024-03-08T09:16:39.690Z,18.09
2024-03-08T09:17:46.582Z,18.08
2024-03-08T09:18:53.425Z,18.47
2024-03-08T09:20:00.341Z,19.77
2024-03-08T09:21:07.199Z,20.30
2024-03-08T09:22:14.027Z,21.35
2024-03-08T09:23:20.913Z,22.24
2024-03-08T09:24:27.701Z,22.80
2024-03-08T09:25:34.586Z,22.98
2024-03-08T09:26:41.396Z,23.91
2024-03-08T09:27:48.305Z,25.26
2024-03-08T09:28:55.178Z,24.17
2024-03-08T09:30:02.006Z,23.82
2024-03-08T09:31:08.920Z,23.30
2024-03-08T09:32:15.812Z,23.93
2024-03-08T09:33:22.648Z,24.05
2024-03-08T09:34:37.053Z,24.01
2024-03-08T09:35:41.185Z,24.59
2024-03-08T09:36:48.300Z,25.51
2024-03-08T09:37:55.190Z,26.89
2024-03-08T09:39:02.027Z,26.36
2024-03-08T09:40:08.826Z,25.84
2024-03-08T09:41:15.705Z,26.64
2024-03-08T09:42:22.520Z,25.50
2024-03-08T09:43:29.408Z,28.75
2024-03-08T09:44:36.254Z,31.65
2024-03-08T09:45:43.152Z,33.25
2024-03-08T09:46:50.058Z,38.00
2024-03-08T09:47:56.960Z,39.66
2024-03-08T09:49:03.885Z,41.51
2024-03-08T09:50:10.718Z,42.74
2024-03-08T09:51:17.577Z,44.12
2024-03-08T09:52:24.475Z,46.19
2024-03-08T09:53:31.373Z,45.67
2024-03-08T09:54:38.226Z,45.53
2024-03-08T09:55:45.081Z,41.01
2024-03-08T09:56:51.970Z,36.51
2024-03-08T09:57:58.788Z,32.14
2024-03-08T09:59:05.731Z,27.68
2024-03-08T10:00:12.566Z,24.99
2024-03-08T10:01:19.493Z,22.81
2024-03-08T10:02:26.492Z,22.15
2024-03-08T10:03:33.399Z,21.12
2024-03-08T10:04:40.301Z,19.82
2024-03-08T10:05:47.136Z,20.19
2024-03-08T10:06:54.019Z,19.37
2024-03-08T10:08:00.889Z,19.57
2024-03-08T10:09:07.772Z,19.24
2024-03-08T10:10:14.707Z,20.35
2024-03-08T10:11:21.652Z,21.12
2024-03-08T10:12:28.560Z,21.58
2024-03-08T10:13:35.449Z,23.61
2024-03-08T10:14:42.279Z,23.82
2024-03-08T10:15:49.205Z,24.48
2024-03-08T10:16:56.233Z,24.53
2024-03-08T10:18:03.218Z,26.54
2024-03-08T10:19:10.014Z,27.01
2024-03-08T10:20:16.916Z,27.32
2024-03-08T10:21:23.846Z,27.27
2024-03-08T10:22:30.752Z,27.57
2024-03-08T10:23:37.686Z,29.28
2024-03-08T10:24:44.576Z,28.43
2024-03-08T10:25:51.513Z,28.61
2024-03-08T10:26:58.423Z,19.82
2024-03-08T10:28:05.244Z,15.45
2024-03-08T10:29:12.144Z,13.67
2024-03-08T10:30:18.967Z,13.19
2024-03-08T10:31:25.872Z,13.19
2024-03-08T10:32:32.782Z,10.50
2024-03-08T10:33:39.619Z,7.18
2024-03-08T10:34:46.544Z,6.80
2024-03-08T10:35:53.390Z,6.38
2024-03-08T10:37:00.260Z,6.00
2024-03-08T10:38:07.172Z,6.29
2024-03-08T10:39:14.109Z,5.73
2024-03-08T10:40:21.200Z,5.82
2024-03-08T10:41:28.125Z,5.65
2024-03-08T10:42:38.180Z,6.69
2024-03-08T10:43:46.022Z,7.76
2024-03-08T10:44:52.930Z,8.25
2024-03-08T10:45:59.808Z,8.82
2024-03-08T10:47:07.029Z,9.22
2024-03-08T10:48:14.050Z,9.72
2024-03-08T10:49:20.908Z,10.22
2024-03-08T10:50:27.764Z,10.07
2024-03-08T10:51:34.612Z,10.78
2024-03-08T10:52:41.620Z,12.73
2024-03-08T10:53:48.503Z,14.11
2024-03-08T10:54:55.413Z,14.77
2024-03-08T10:56:02.326Z,14.48
2024-03-08T10:57:09.165Z,15.17
2024-03-08T10:58:16.051Z,13.97
2024-03-08T10:59:22.896Z,13.97
2024-03-08T11:00:29.787Z,14.33
2024-03-08T11:01:36.772Z,13.20
2024-03-08T11:02:43.655Z,12.89
2024-03-08T11:03:50.633Z,13.12
2024-03-08T11:04:57.515Z,12.09
2024-03-08T11:06:04.592Z,12.90
2024-03-08T11:07:11.411Z,11.44
2024-03-08T11:08:18.304Z,11.94
2024-03-08T11:09:25.198Z,14.39
2024-03-08T11:10:32.142Z,16.03
2024-03-08T11:11:39.122Z,16.74
2024-03-08T11:12:45.969Z,16.26
2024-03-08T11:13:52.878Z,11.67
2024-03-08T11:14:59.709Z,9.85
2024-03-08T11:16:06.586Z,9.29
2024-03-08T11:17:14.850Z,11.40
2024-03-08T11:18:22.902Z,14.73
2024-03-08T11:19:29.835Z,16.57
2024-03-08T11:20:36.784Z,18.26
2024-03-08T11:21:43.688Z,16.47
2024-03-08T11:22:50.663Z,16.36
2024-03-08T11:23:57.482Z,14.28
2024-03-08T11:25:04.376Z,12.37
2024-03-08T11:26:11.248Z,11.41
2024-03-08T11:27:18.107Z,10.31
2024-03-08T11:28:25.006Z,8.04
2024-03-08T11:29:31.893Z,6.93
2024-03-08T11:30:38.745Z,6.48
2024-03-08T11:31:45.675Z,5.60
2024-03-08T11:32:52.613Z,5.43
2024-03-08T11:33:59.492Z,5.59
2024-03-08T11:35:06.410Z,5.02
2024-03-08T11:36:13.262Z,5.19
2024-03-08T11:37:20.196Z,5.21
2024-03-08T11:38:27.129Z,4.85
2024-03-08T11:39:33.994Z,5.21
2024-03-08T11:40:40.868Z,5.27
2024-03-08T11:41:47.811Z,5.29
2024-03-08T11:42:54.644Z,5.24
2024-03-08T11:44:01.541Z,5.21
2024-03-08T11:45:08.391Z,5.27
2024-03-08T11:46:15.329Z,5.17
2024-03-08T11:47:22.318Z,5.22
2024-03-08T11:48:29.132Z,5.61
2024-03-08T11:49:36.109Z,5.19
2024-03-08T11:50:42.959Z,6.21
2024-03-08T11:51:49.826Z,6.01
2024-03-08T11:52:56.808Z,6.15
2024-03-08T11:54:03.747Z,6.54
2024-03-08T11:55:10.619Z,6.39
2024-03-08T11:56:17.569Z,6.24
2024-03-08T11:57:24.372Z,7.55
2024-03-08T11:58:31.254Z,11.53
2024-03-08T11:59:38.110Z,10.68
2024-03-08T12:00:44.999Z,6.61
2024-03-08T12:01:51.933Z,5.82
2024-03-08T12:02:58.854Z,7.10
2024-03-08T12:04:05.699Z,12.04
2024-03-08T12:05:12.566Z,22.92
2024-03-08T12:06:19.415Z,29.31
2024-03-08T12:07:26.370Z,32.18
2024-03-08T12:08:33.180Z,30.53
2024-03-08T12:09:40.060Z,28.70
2024-03-08T12:10:46.980Z,25.97
2024-03-08T12:11:53.905Z,24.86
2024-03-08T12:13:00.895Z,21.94
2024-03-08T12:14:07.854Z,24.47
2024-03-08T12:15:14.767Z,17.61
2024-03-08T12:16:21.673Z,11.82
2024-03-08T12:17:28.492Z,10.36
2024-03-08T12:18:35.388Z,9.96
2024-03-08T12:19:42.268Z,9.09
2024-03-08T12:20:49.131Z,8.13
2024-03-08T12:21:55.971Z,7.22
2024-03-08T12:23:02.877Z,7.04
2024-03-08T12:24:10.113Z,7.08
2024-03-08T12:25:17.309Z,7.56
2024-03-08T12:26:24.199Z,7.40
2024-03-08T12:27:31.059Z,6.84
2024-03-08T12:28:37.896Z,6.31
2024-03-08T12:29:44.812Z,6.77
2024-03-08T12:30:51.664Z,6.90
2024-03-08T12:31:58.600Z,7.03
2024-03-08T12:33:05.704Z,7.01
2024-03-08T12:34:12.654Z,7.65
2024-03-08T12:35:19.618Z,7.83
2024-03-08T12:36:26.570Z,7.86
2024-03-08T12:37:33.463Z,7.33
2024-03-08T12:38:40.450Z,7.61
2024-03-08T12:39:47.584Z,7.84
2024-03-08T12:40:54.599Z,7.94
2024-03-08T12:42:01.661Z,7.87
2024-03-08T12:43:08.571Z,7.46
2024-03-08T12:44:15.447Z,6.81
2024-03-08T12:45:22.318Z,6.55
2024-03-08T12:46:29.252Z,6.79
2024-03-08T12:47:36.120Z,7.05
2024-03-08T12:48:42.938Z,8.31
2024-03-08T12:49:49.872Z,8.43
2024-03-08T12:50:56.696Z,8.69
2024-03-08T12:52:03.640Z,8.36
2024-03-08T12:53:10.643Z,9.18
2024-03-08T12:54:17.611Z,9.43
2024-03-08T12:55:24.572Z,9.23
2024-03-08T12:56:31.530Z,9.42
2024-03-08T12:57:38.418Z,9.89
2024-03-08T12:58:45.386Z,10.64
2024-03-08T12:59:52.215Z,9.28
2024-03-08T13:00:59.088Z,8.61
2024-03-08T13:02:05.986Z,7.43
2024-03-08T13:03:12.988Z,7.73
2024-03-08T13:04:19.866Z,7.34
2024-03-08T13:05:26.706Z,9.00
2024-03-08T13:06:33.614Z,10.46
2024-03-08T13:07:40.468Z,14.78
2024-03-08T13:08:47.369Z,19.90
2024-03-08T13:09:54.218Z,20.48
2024-03-08T13:11:01.235Z,17.47
2024-03-08T13:12:08.164Z,16.29
2024-03-08T13:13:15.111Z,16.04
2024-03-08T13:14:21.960Z,16.41
2024-03-08T13:15:28.807Z,15.49
2024-03-08T13:16:35.731Z,17.36
2024-03-08T13:17:42.620Z,22.56
2024-03-08T13:18:53.136Z,35.29
2024-03-08T13:20:01.371Z,52.76
2024-03-08T13:21:08.316Z,61.99
2024-03-08T13:22:15.295Z,61.04
2024-03-08T13:23:22.195Z,53.50
2024-03-08T13:24:29.074Z,45.71
2024-03-08T13:25:36.051Z,40.90
2024-03-08T13:26:43.159Z,38.83
2024-03-08T13:27:50.053Z,36.85
2024-03-08T13:28:56.973Z,35.64
2024-03-08T13:30:03.856Z,33.86
2024-03-08T13:31:10.718Z,30.89
2024-03-08T13:32:17.578Z,29.81
2024-03-08T13:33:24.440Z,27.15
2024-03-08T13:34:31.356Z,24.39
2024-03-08T13:35:38.212Z,22.55
2024-03-08T13:36:45.700Z,21.94
2024-03-08T13:37:52.908Z,20.53
2024-03-08T13:38:59.799Z,19.49
2024-03-08T13:40:06.670Z,18.81
2024-03-08T13:41:13.647Z,17.59
2024-03-08T13:42:20.606Z,17.58
2024-03-08T13:43:27.556Z,16.62
2024-03-08T13:44:34.447Z,15.68
2024-03-08T13:45:41.319Z,15.29
2024-03-08T13:46:49.674Z,15.01
2024-03-08T13:47:58.860Z,14.29
2024-03-08T13:49:05.712Z,13.64
2024-03-08T13:50:12.538Z,13.78
2024-03-08T13:51:19.452Z,14.19
2024-03-08T13:52:26.521Z,14.30
2024-03-08T13:53:33.536Z,15.33
2024-03-08T13:54:40.403Z,18.13
2024-03-08T13:55:47.322Z,21.39
2024-03-08T13:56:54.237Z,24.54
2024-03-08T13:58:01.124Z,27.01
2024-03-08T13:59:08.052Z,29.25
2024-03-08T14:00:14.888Z,28.48
2024-03-08T14:01:21.834Z,27.30
2024-03-08T14:02:28.679Z,25.33
2024-03-08T14:03:35.544Z,24.09
2024-03-08T14:04:42.419Z,22.99
2024-03-08T14:05:49.318Z,22.72
2024-03-08T14:06:57.318Z,24.48
2024-03-08T14:08:05.055Z,27.89
2024-03-08T14:09:11.976Z,30.30
2024-03-08T14:10:18.980Z,32.65
2024-03-08T14:11:25.964Z,34.79
2024-03-08T14:12:32.925Z,35.66
2024-03-08T14:13:39.802Z,38.61
2024-03-08T14:14:46.599Z,38.01
2024-03-08T14:15:53.543Z,40.31
2024-03-08T14:17:00.476Z,41.77
2024-03-08T14:18:07.514Z,42.26
2024-03-08T14:19:14.373Z,40.65
2024-03-08T14:20:21.252Z,40.43
2024-03-08T14:21:28.178Z,41.65
2024-03-08T14:22:35.044Z,41.41
2024-03-08T14:23:41.928Z,39.16
2024-03-08T14:24:48.810Z,37.75
2024-03-08T14:25:55.723Z,37.85
2024-03-08T14:27:02.612Z,36.92
2024-03-08T14:28:09.530Z,35.98
2024-03-08T14:29:16.422Z,34.53
2024-03-08T14:30:23.271Z,34.55
2024-03-08T14:31:30.165Z,33.38
2024-03-08T14:32:37.085Z,33.42
2024-03-08T14:33:43.986Z,32.78
2024-03-08T14:34:50.922Z,33.08
2024-03-08T14:35:57.879Z,32.30